createdAt,value
2022-11-20T09:36:24.533Z,96785.59
2022-11-20T09:38:27.266Z,96792.25
2022-11-20T09:40:31.000Z,96791.13
2022-11-20T09:42:44.655Z,96792.38
2022-11-20T09:45:17.505Z,96794.06
2022-11-20T09:47:33.653Z,96796.75
2022-11-20T09:49:51.264Z,96790.03
2022-11-20T09:52:00.066Z,96800.25
2022-11-20T09:54:15.811Z,96794.34
2022-11-20T09:56:22.563Z,96792.13
2022-11-20T09:58:33.247Z,96794.16
2022-11-20T10:00:38.915Z,96799.47
2022-11-20T10:02:46.689Z,96786.00
2022-11-20T10:05:01.932Z,96792.50
2022-11-20T10:07:31.467Z,96794.16
2022-11-20T10:09:36.587Z,96789.88
2022-11-20T10:11:48.955Z,96785.16
2022-11-20T10:14:05.491Z,96794.38
2022-11-20T10:16:24.123Z,96803.75
2022-11-20T10:18:45.135Z,96791.28
2022-11-20T10:20:56.434Z,96786.81
2022-11-20T10:23:24.317Z,96792.50
2022-11-20T10:25:39.901Z,96787.22
2022-11-20T10:28:08.592Z,96783.53
2022-11-20T10:30:14.180Z,96776.59
2022-11-20T10:32:21.078Z,96781.50
2022-11-20T10:34:28.568Z,96768.03
2022-11-20T10:36:37.307Z,96790.47
2022-11-20T10:38:45.075Z,96782.31
2022-11-20T10:40:52.971Z,96784.75
2022-11-20T10:42:59.102Z,96783.94
2022-11-20T10:45:16.294Z,96783.94
2022-11-20T10:47:22.066Z,96788.22
2022-11-20T10:49:25.032Z,96782.72
2022-11-20T10:51:39.548Z,96780.25
2022-11-20T10:53:52.967Z,96777.44
2022-11-20T10:56:01.227Z,96777.81
2022-11-20T10:58:12.437Z,96778.63
2022-11-20T11:00:17.893Z,96777.63
2022-11-20T11:02:22.893Z,96764.75
2022-11-20T11:04:39.160Z,96769.66
2022-11-20T11:06:49.609Z,96757.00
2022-11-20T11:08:57.412Z,96759.44
2022-11-20T11:11:04.839Z,96750.47
2022-11-20T11:13:07.537Z,96751.28
2022-11-20T11:15:16.442Z,96754.94
2022-11-20T11:17:27.785Z,96749.66
2022-11-20T11:19:30.577Z,96744.34
2022-11-20T11:21:33.390Z,96730.88
2022-11-20T11:23:38.314Z,96739.84
2022-11-20T11:25:42.435Z,96733.72
2022-11-20T11:27:48.895Z,96731.06
2022-11-20T11:29:51.861Z,96722.09
2022-11-20T11:32:06.570Z,96727.41
2022-11-20T11:34:13.594Z,96712.09
2022-11-20T11:36:21.971Z,96712.09
2022-11-20T11:38:31.823Z,96701.69
2022-11-20T11:40:36.819Z,96689.66
2022-11-20T11:42:46.306Z,96684.16
2022-11-20T11:45:07.436Z,96683.94
2022-11-20T11:47:20.554Z,96674.34
2022-11-20T11:49:23.697Z,96669.66
2022-11-20T11:51:31.870Z,96673.31
2022-11-20T11:53:41.362Z,96668.63
2022-11-20T11:55:47.840Z,96660.66
2022-11-20T11:57:57.706Z,96650.06
2022-11-20T12:00:06.422Z,96642.09
2022-11-20T12:02:31.792Z,96641.88
2022-11-20T12:04:45.633Z,96639.03
2022-11-20T12:06:53.825Z,96633.31
2022-11-20T12:09:01.303Z,96643.13
2022-11-20T12:11:08.557Z,96634.13
2022-11-20T12:13:23.246Z,96625.16
2022-11-20T12:15:31.785Z,96621.47
2022-11-20T12:17:34.793Z,96615.97
2022-11-20T12:19:37.666Z,96605.56
2022-11-20T12:21:50.915Z,96609.22
2022-11-20T12:24:07.900Z,96607.22
2022-11-20T12:26:21.872Z,96605.56
2022-11-20T12:28:46.363Z,96612.28
2022-11-20T12:31:01.598Z,96610.03
2022-11-20T12:33:25.598Z,96616.56
2022-11-20T12:35:46.774Z,96619.25
2022-11-20T12:37:59.657Z,96622.94
2022-11-20T12:40:14.294Z,96620.28
2022-11-20T12:42:56.201Z,96603.31
2022-11-20T12:45:11.271Z,96585.97
2022-11-20T12:47:25.658Z,96582.69
2022-11-20T12:49:40.023Z,96588.81
2022-11-20T12:52:12.785Z,96590.66
2022-11-20T12:54:36.309Z,96593.94
2022-11-20T12:56:45.383Z,96595.34
2022-11-20T12:59:02.362Z,96597.19
2022-11-20T13:01:36.584Z,96597.78
2022-11-20T13:03:48.572Z,96601.47
2022-11-20T13:05:58.907Z,96606.78
2022-11-20T13:08:04.318Z,96602.88
2022-11-20T13:10:18.543Z,96605.31
2022-11-20T13:12:26.347Z,96613.88
2022-11-20T13:14:38.637Z,96610.41
2022-11-20T13:16:50.604Z,96611.84
2022-11-20T13:18:53.569Z,96607.13
2022-11-20T13:20:56.351Z,96592.25
2022-11-20T13:22:59.734Z,96589.59
2022-11-20T13:25:02.783Z,96594.47
2022-11-20T13:27:24.168Z,96596.09
2022-11-20T13:29:27.139Z,96595.06
2022-11-20T13:31:33.698Z,96599.34
2022-11-20T13:33:39.749Z,96587.69
2022-11-20T13:35:44.289Z,96588.28
2022-11-20T13:37:47.103Z,96579.50
2022-11-20T13:39:50.071Z,96574.84
2022-11-20T13:41:57.105Z,96566.06
2022-11-20T13:44:09.076Z,96559.72
2022-11-20T13:46:12.379Z,96558.91
2022-11-20T13:48:23.632Z,96560.53
2022-11-20T13:50:42.629Z,96559.50
2022-11-20T13:52:56.575Z,96557.88
2022-11-20T13:55:14.241Z,96554.41
2022-11-20T13:57:37.288Z,96551.53
2022-11-20T13:59:55.074Z,96558.47
2022-11-20T14:01:58.114Z,96553.75
2022-11-20T14:04:08.336Z,96560.09
2022-11-20T14:06:22.494Z,96555.81
2022-11-20T14:08:30.516Z,96550.50
2022-11-20T14:10:34.349Z,96556.63
2022-11-20T14:12:37.921Z,96553.38
2022-11-20T14:14:50.362Z,96549.31
2022-11-20T14:16:53.941Z,96543.00
2022-11-20T14:18:57.928Z,96538.50
2022-11-20T14:21:04.764Z,96540.13
2022-11-20T14:23:12.125Z,96540.13
2022-11-20T14:25:24.178Z,96525.81
2022-11-20T14:27:27.036Z,96520.50
2022-11-20T14:29:35.273Z,96509.53
2022-11-20T14:31:38.135Z,96520.13
2022-11-20T14:33:40.926Z,96515.63
2022-11-20T14:35:47.531Z,96521.31
2022-11-20T14:37:50.448Z,96510.94
2022-11-20T14:39:56.865Z,96513.59
2022-11-20T14:41:59.753Z,96522.34
2022-11-20T14:44:03.726Z,96520.50
2022-11-20T14:46:09.590Z,96523.75
2022-11-20T14:48:13.008Z,96514.19
2022-11-20T14:50:20.557Z,96503.34
2022-11-20T14:52:25.381Z,96516.38
2022-11-20T14:54:29.200Z,96505.41
2022-11-20T14:56:33.391Z,96500.91
2022-11-20T14:58:36.178Z,96512.09
2022-11-20T15:00:38.826Z,96493.53
2022-11-20T15:02:43.335Z,96502.09
2022-11-20T15:04:47.574Z,96500.25
2022-11-20T15:06:53.167Z,96498.41
2022-11-20T15:08:55.933Z,96494.72
2022-11-20T15:10:59.346Z,96486.75
2022-11-20T15:13:12.382Z,96490.44
2022-11-20T15:15:21.336Z,96485.13
2022-11-20T15:17:24.409Z,96475.53
2022-11-20T15:19:28.578Z,96479.81
2022-11-20T15:21:31.417Z,96485.13
2022-11-20T15:23:34.309Z,96487.78
2022-11-20T15:25:36.957Z,96490.44
2022-11-20T15:27:39.831Z,96479.00
2022-11-20T15:29:44.406Z,96483.50
2022-11-20T15:31:47.208Z,96477.97
2022-11-20T15:33:50.137Z,96480.84
2022-11-20T15:35:52.858Z,96486.81
2022-11-20T15:37:55.685Z,96481.50
2022-11-20T15:39:58.741Z,96484.16
2022-11-20T15:42:01.442Z,96470.91
2022-11-20T15:44:04.837Z,96471.13
2022-11-20T15:46:13.454Z,96479.09
2022-11-20T15:48:18.770Z,96474.19
2022-11-20T15:50:22.476Z,96473.59
2022-11-20T15:52:25.291Z,96462.97
2022-11-20T15:54:27.932Z,96474.41
2022-11-20T15:56:30.614Z,96467.25
2022-11-20T15:58:33.538Z,96464.00
2022-11-20T16:00:36.335Z,96474.03
2022-11-20T16:02:40.425Z,96482.59
2022-11-20T16:04:43.655Z,96486.28
2022-11-20T16:06:46.563Z,96478.09
2022-11-20T16:08:49.303Z,96490.97
2022-11-20T16:10:52.002Z,96494.88
2022-11-20T16:13:12.072Z,96507.72
2022-11-20T16:15:32.676Z,96498.72
2022-11-20T16:17:44.400Z,96504.25
2022-11-20T16:19:48.408Z,96504.84
2022-11-20T16:21:52.304Z,96509.13
2022-11-20T16:23:55.476Z,96511.78
2022-11-20T16:25:58.256Z,96512.59
2022-11-20T16:28:01.695Z,96513.03
2022-11-20T16:30:04.693Z,96511.19
2022-11-20T16:32:07.357Z,96519.28
2022-11-20T16:34:12.545Z,96500.13
2022-11-20T16:36:17.252Z,96502.41
2022-11-20T16:38:19.957Z,96504.69
2022-11-20T16:40:22.900Z,96501.41
2022-11-20T16:42:26.047Z,96510.03
2022-11-20T16:44:28.877Z,96507.16
2022-11-20T16:46:33.355Z,96511.44
2022-11-20T16:48:36.254Z,96520.81
2022-11-20T16:50:38.989Z,96525.50
2022-11-20T16:52:43.057Z,96529.59
2022-11-20T16:54:45.786Z,96527.94
2022-11-20T16:56:48.586Z,96517.53
2022-11-20T16:58:51.983Z,96519.38
2022-11-20T17:00:54.776Z,96528.16
2022-11-20T17:02:57.483Z,96530.81
2022-11-20T17:05:00.105Z,96534.47
2022-11-20T17:07:07.837Z,96544.06
2022-11-20T17:09:12.928Z,96546.09
2022-11-20T17:11:17.929Z,96554.66
2022-11-20T17:13:20.734Z,96572.03
2022-11-20T17:15:23.376Z,96566.75
2022-11-20T17:17:26.130Z,96575.28
2022-11-20T17:19:29.045Z,96582.84
2022-11-20T17:21:32.222Z,96580.19
2022-11-20T17:23:36.636Z,96589.19
2022-11-20T17:25:40.838Z,96586.16
2022-11-20T17:27:43.600Z,96583.72
2022-11-20T17:29:46.594Z,96582.91
2022-11-20T17:31:50.070Z,96593.28
2022-11-20T17:33:53.433Z,96600.59
2022-11-20T17:35:56.866Z,96596.13
2022-11-20T17:37:59.606Z,96597.56
2022-11-20T17:40:02.306Z,96587.41
2022-11-20T17:42:23.931Z,96598.63
2022-11-20T17:44:26.755Z,96581.06
2022-11-20T17:46:33.408Z,96583.34
2022-11-20T17:48:37.052Z,96581.88
2022-11-20T17:50:39.873Z,96595.72
2022-11-20T17:52:42.654Z,96592.47
2022-11-20T17:54:45.429Z,96608.63
2022-11-20T17:57:05.805Z,96618.41
2022-11-20T17:59:11.773Z,96638.41
2022-11-20T18:01:15.095Z,96620.69
2022-11-20T18:03:17.910Z,96624.75
2022-11-20T18:05:20.674Z,96620.47
2022-11-20T18:07:23.486Z,96634.56
2022-11-20T18:09:26.392Z,96635.38
2022-11-20T18:11:30.783Z,96631.75
2022-11-20T18:13:53.322Z,96656.66
2022-11-20T18:16:08.452Z,96648.09
2022-11-20T18:18:11.242Z,96666.06
2022-11-20T18:20:33.001Z,96664.03
2022-11-20T18:22:36.843Z,96661.41
2022-11-20T18:24:40.353Z,96656.34
2022-11-20T18:26:44.610Z,96658.81
2022-11-20T18:28:48.304Z,96666.75
2022-11-20T18:30:51.154Z,96665.91
2022-11-20T18:32:55.725Z,96668.34
2022-11-20T18:34:58.539Z,96666.72
2022-11-20T18:37:01.293Z,96647.78
2022-11-20T18:39:04.567Z,96662.06
2022-11-20T18:41:07.793Z,96657.16
2022-11-20T18:43:29.473Z,96658.63
2022-11-20T18:45:32.239Z,96660.63
2022-11-20T18:47:37.973Z,96657.16
2022-11-20T18:49:42.320Z,96656.13
2022-11-20T18:51:45.551Z,96658.19
2022-11-20T18:53:48.515Z,96659.22
2022-11-20T18:55:51.513Z,96654.69
2022-11-20T18:57:55.100Z,96643.28
2022-11-20T19:00:06.485Z,96646.19
2022-11-20T19:02:12.320Z,96651.06
2022-11-20T19:04:17.447Z,96659.81
2022-11-20T19:06:22.044Z,96659.00
2022-11-20T19:08:24.894Z,96663.69
2022-11-20T19:10:28.040Z,96661.66
2022-11-20T19:12:34.284Z,96663.28
2022-11-20T19:14:37.042Z,96653.50
2022-11-20T19:16:39.731Z,96651.25
2022-11-20T19:18:43.662Z,96654.31
2022-11-20T19:20:46.671Z,96654.53
2022-11-20T19:22:53.538Z,96656.53
2022-11-20T19:24:56.197Z,96648.59
2022-11-20T19:26:58.748Z,96653.72
2022-11-20T19:29:01.452Z,96670.44
2022-11-20T19:31:05.282Z,96660.63
2022-11-20T19:33:08.139Z,96668.59
2022-11-20T19:35:10.801Z,96664.09
2022-11-20T19:37:13.469Z,96665.50
2022-11-20T19:39:18.000Z,96676.75
2022-11-20T19:41:22.175Z,96677.34
2022-11-20T19:43:25.080Z,96680.00
2022-11-20T19:45:27.936Z,96682.84
2022-11-20T19:48:00.553Z,96682.84
2022-11-20T19:49:53.558Z,96697.50
2022-11-20T19:51:56.343Z,96699.75
2022-11-20T19:54:00.087Z,96702.81
2022-11-20T19:56:04.289Z,96700.75
2022-11-20T19:58:07.454Z,96713.84
2022-11-20T20:00:12.340Z,96709.94
2022-11-20T20:02:17.921Z,96703.84
2022-11-20T20:04:20.797Z,96703.22
2022-11-20T20:06:25.042Z,96714.66
2022-11-20T20:08:28.169Z,96714.84
2022-11-20T20:10:30.870Z,96717.50
2022-11-20T20:12:34.942Z,96719.72
2022-11-20T20:14:37.768Z,96719.72
2022-11-20T20:16:40.541Z,96714.22
2022-11-20T20:18:43.792Z,96715.03
2022-11-20T20:20:46.577Z,96718.28
2022-11-20T20:22:49.588Z,96726.25
2022-11-20T20:24:52.908Z,96730.94
2022-11-20T20:26:58.315Z,96732.38
2022-11-20T20:29:03.008Z,96735.84
2022-11-20T20:31:07.875Z,96746.25
2022-11-20T20:33:10.638Z,96749.09
2022-11-20T20:35:13.527Z,96757.88
2022-11-20T20:37:16.304Z,96769.28
2022-11-20T20:39:22.084Z,96770.31
2022-11-20T20:41:26.701Z,96766.00
2022-11-20T20:43:29.450Z,96772.13
2022-11-20T20:45:32.519Z,96783.53
2022-11-20T20:47:36.792Z,96774.78
2022-11-20T20:49:43.142Z,96778.66
2022-11-20T20:51:45.846Z,96783.13
2022-11-20T20:53:49.988Z,96800.06
2022-11-20T20:55:56.355Z,96794.53
2022-11-20T20:57:59.229Z,96798.63
2022-11-20T21:00:02.122Z,96805.16
2022-11-20T21:02:06.408Z,96806.78
2022-11-20T21:04:09.238Z,96813.72
2022-11-20T21:06:12.863Z,96814.53
2022-11-20T21:08:24.958Z,96806.59
2022-11-20T21:10:27.922Z,96810.03
2022-11-20T21:12:30.740Z,96812.91
2022-11-20T21:14:33.515Z,96811.88
2022-11-20T21:16:41.090Z,96815.34
2022-11-20T21:18:45.367Z,96806.78
2022-11-20T21:21:06.042Z,96801.47
2022-11-20T21:23:12.103Z,96805.78
2022-11-20T21:25:14.942Z,96806.78
2022-11-20T21:27:17.664Z,96810.88
2022-11-20T21:29:20.170Z,96811.84
2022-11-20T21:31:24.649Z,96814.13
2022-11-20T21:33:27.322Z,96812.91
2022-11-20T21:35:34.614Z,96823.91
2022-11-20T21:37:40.917Z,96820.22
2022-11-20T21:39:50.672Z,96819.41
2022-11-20T21:41:53.444Z,96811.25
2022-11-20T21:44:41.019Z,96823.09
2022-11-20T21:46:19.463Z,96822.28
2022-11-20T21:48:22.322Z,96821.47
2022-11-20T21:50:25.058Z,96812.91
2022-11-20T21:52:29.210Z,96813.72
2022-11-20T21:54:31.842Z,96805.16
2022-11-20T21:56:34.489Z,96813.09
2022-11-20T21:58:38.616Z,96812.91
2022-11-20T22:00:41.717Z,96803.94
2022-11-20T22:02:44.431Z,96803.53
2022-11-20T22:04:47.151Z,96793.31
2022-11-20T22:06:49.817Z,96795.78
2022-11-20T22:08:53.914Z,96798.41
2022-11-20T22:10:58.093Z,96796.38
